sensor_id;sensor_type;location;lat;lon;timestamp;P1;durP1;ratioP1;P2;durP2;ratioP2
25609;SDS011;13479;49.044;8.716;2024-02-21T05:02:21;9.17;;;2.83;;
25609;SDS011;13479;49.044;8.716;2024-02-21T05:04:49;15.77;;;3.23;;
25609;SDS011;13479;49.044;8.716;2024-02-21T05:07:14;8.27;;;2.73;;
25609;SDS011;13479;49.044;8.716;2024-02-21T05:09:39;13.80;;;3.13;;
25609;SDS011;13479;49.044;8.716;2024-02-21T05:12:06;10.03;;;2.80;;
25609;SDS011;13479;49.044;8.716;2024-02-21T05:14:32;9.97;;;3.17;;
25609;SDS011;13479;49.044;8.716;2024-02-21T05:16:57;12.00;;;3.07;;
25609;SDS011;13479;49.044;8.716;2024-02-21T05:19:22;11.30;;;3.07;;
25609;SDS011;13479;49.044;8.716;2024-02-21T05:21:48;9.00;;;3.23;;
25609;SDS011;13479;49.044;8.716;2024-02-21T05:24:13;8.13;;;2.70;;
25609;SDS011;13479;49.044;8.716;2024-02-21T05:26:38;11.53;;;3.53;;
25609;SDS011;13479;49.044;8.716;2024-02-21T05:29:03;11.33;;;3.57;;
25609;SDS011;13479;49.044;8.716;2024-02-21T05:34:16;10.97;;;3.20;;
25609;SDS011;13479;49.044;8.716;2024-02-21T05:36:41;12.77;;;4.10;;
25609;SDS011;13479;49.044;8.716;2024-02-21T05:39:07;16.27;;;4.03;;
25609;SDS011;13479;49.044;8.716;2024-02-21T05:41:32;10.10;;;3.70;;
25609;SDS011;13479;49.044;8.716;2024-02-21T05:43:57;14.60;;;4.90;;
25609;SDS011;13479;49.044;8.716;2024-02-21T05:46:22;16.93;;;5.00;;
25609;SDS011;13479;49.044;8.716;2024-02-21T05:48:48;15.77;;;4.57;;
25609;SDS011;13479;49.044;8.716;2024-02-21T05:51:13;15.10;;;4.90;;
25609;SDS011;13479;49.044;8.716;2024-02-21T05:53:38;12.70;;;4.40;;
25609;SDS011;13479;49.044;8.716;2024-02-21T05:56:09;14.43;;;4.60;;
25609;SDS011;13479;49.044;8.716;2024-02-21T05:58:36;20.33;;;5.10;;
25609;SDS011;13479;49.044;8.716;2024-02-21T06:01:01;15.90;;;4.50;;
25609;SDS011;13479;49.044;8.716;2024-02-21T06:03:28;17.53;;;4.60;;
25609;SDS011;13479;49.044;8.716;2024-02-21T06:05:53;22.50;;;5.95;;
25609;SDS011;13479;49.044;8.716;2024-02-21T06:08:19;19.93;;;6.60;;
25609;SDS011;13479;49.044;8.716;2024-02-21T06:10:45;17.33;;;5.87;;
25609;SDS011;13479;49.044;8.716;2024-02-21T06:13:10;18.27;;;5.50;;
25609;SDS011;13479;49.044;8.716;2024-02-21T06:15:35;15.37;;;5.03;;
25609;SDS011;13479;49.044;8.716;2024-02-21T06:18:00;19.93;;;6.47;;
25609;SDS011;13479;49.044;8.716;2024-02-21T06:20:26;18.10;;;5.70;;
25609;SDS011;13479;49.044;8.716;2024-02-21T06:22:51;22.37;;;6.50;;
25609;SDS011;13479;49.044;8.716;2024-02-21T06:25:17;21.80;;;7.47;;
25609;SDS011;13479;49.044;8.716;2024-02-21T06:27:43;35.63;;;12.27;;
25609;SDS011;13479;49.044;8.716;2024-02-21T06:30:08;40.10;;;14.93;;
25609;SDS011;13479;49.044;8.716;2024-02-21T06:32:34;29.10;;;10.40;;
25609;SDS011;13479;49.044;8.716;2024-02-21T06:34:59;25.23;;;7.77;;
25609;SDS011;13479;49.044;8.716;2024-02-21T06:37:26;28.40;;;10.57;;
25609;SDS011;13479;49.044;8.716;2024-02-21T06:39:51;24.07;;;9.30;;
25609;SDS011;13479;49.044;8.716;2024-02-21T06:42:17;18.37;;;7.37;;
25609;SDS011;13479;49.044;8.716;2024-02-21T06:44:43;18.30;;;6.27;;
25609;SDS011;13479;49.044;8.716;2024-02-21T06:47:09;20.57;;;6.37;;
25609;SDS011;13479;49.044;8.716;2024-02-21T06:49:34;20.67;;;6.73;;
25609;SDS011;13479;49.044;8.716;2024-02-21T06:51:59;21.60;;;6.72;;
25609;SDS011;13479;49.044;8.716;2024-02-21T06:54:25;14.20;;;5.70;;
25609;SDS011;13479;49.044;8.716;2024-02-21T06:56:50;11.43;;;4.50;;
25609;SDS011;13479;49.044;8.716;2024-02-21T06:59:15;14.20;;;4.97;;
25609;SDS011;13479;49.044;8.716;2024-02-21T07:01:44;12.00;;;4.37;;
25609;SDS011;13479;49.044;8.716;2024-02-21T07:04:20;14.68;;;4.55;;
25609;SDS011;13479;49.044;8.716;2024-02-21T07:06:45;20.75;;;5.38;;
25609;SDS011;13479;49.044;8.716;2024-02-21T07:09:11;19.70;;;5.47;;
25609;SDS011;13479;49.044;8.716;2024-02-21T07:11:36;19.50;;;6.50;;
25609;SDS011;13479;49.044;8.716;2024-02-21T07:14:01;27.85;;;7.70;;
25609;SDS011;13479;49.044;8.716;2024-02-21T07:16:26;14.47;;;4.60;;
25609;SDS011;13479;49.044;8.716;2024-02-21T07:18:53;17.02;;;6.22;;
25609;SDS011;13479;49.044;8.716;2024-02-21T07:21:18;14.37;;;4.60;;
25609;SDS011;13479;49.044;8.716;2024-02-21T07:23:43;15.23;;;4.45;;
25609;SDS011;13479;49.044;8.716;2024-02-21T07:26:09;14.30;;;3.83;;
25609;SDS011;13479;49.044;8.716;2024-02-21T07:28:34;11.98;;;4.25;;
25609;SDS011;13479;49.044;8.716;2024-02-21T07:30:59;11.70;;;3.63;;
25609;SDS011;13479;49.044;8.716;2024-02-21T07:33:25;10.52;;;2.42;;
25609;SDS011;13479;49.044;8.716;2024-02-21T07:35:50;14.88;;;3.33;;
25609;SDS011;13479;49.044;8.716;2024-02-21T07:38:16;8.18;;;2.78;;
25609;SDS011;13479;49.044;8.716;2024-02-21T07:40:44;7.78;;;2.60;;
25609;SDS011;13479;49.044;8.716;2024-02-21T07:43:10;9.25;;;3.20;;
25609;SDS011;13479;49.044;8.716;2024-02-21T07:45:35;7.30;;;3.28;;
25609;SDS011;13479;49.044;8.716;2024-02-21T07:48:00;13.50;;;3.67;;
25609;SDS011;13479;49.044;8.716;2024-02-21T07:50:26;10.35;;;2.88;;
25609;SDS011;13479;49.044;8.716;2024-02-21T07:52:51;11.05;;;3.22;;
25609;SDS011;13479;49.044;8.716;2024-02-21T07:55:17;7.38;;;2.55;;
25609;SDS011;13479;49.044;8.716;2024-02-21T07:57:42;9.23;;;2.67;;
25609;SDS011;13479;49.044;8.716;2024-02-21T08:00:07;11.75;;;2.78;;
25609;SDS011;13479;49.044;8.716;2024-02-21T08:02:40;7.60;;;2.53;;
25609;SDS011;13479;49.044;8.716;2024-02-21T08:05:07;8.65;;;2.38;;
25609;SDS011;13479;49.044;8.716;2024-02-21T08:07:32;8.88;;;2.38;;
25609;SDS011;13479;49.044;8.716;2024-02-21T08:09:57;9.88;;;2.47;;
25609;SDS011;13479;49.044;8.716;2024-02-21T08:12:23;12.70;;;2.85;;
25609;SDS011;13479;49.044;8.716;2024-02-21T08:14:48;10.60;;;2.38;;
25609;SDS011;13479;49.044;8.716;2024-02-21T08:17:13;7.65;;;2.45;;
25609;SDS011;13479;49.044;8.716;2024-02-21T08:19:38;10.70;;;2.78;;
25609;SDS011;13479;49.044;8.716;2024-02-21T08:22:03;9.20;;;2.90;;
25609;SDS011;13479;49.044;8.716;2024-02-21T08:24:29;9.52;;;2.60;;
25609;SDS011;13479;49.044;8.716;2024-02-21T08:26:54;8.65;;;2.50;;
25609;SDS011;13479;49.044;8.716;2024-02-21T08:29:19;7.07;;;2.45;;
25609;SDS011;13479;49.044;8.716;2024-02-21T08:31:44;8.45;;;2.88;;
25609;SDS011;13479;49.044;8.716;2024-02-21T08:34:10;7.10;;;2.45;;
25609;SDS011;13479;49.044;8.716;2024-02-21T08:36:35;8.85;;;2.70;;
25609;SDS011;13479;49.044;8.716;2024-02-21T08:39:01;5.43;;;2.17;;
25609;SDS011;13479;49.044;8.716;2024-02-21T08:41:29;7.80;;;2.60;;
25609;SDS011;13479;49.044;8.716;2024-02-21T08:43:55;8.77;;;2.67;;
25609;SDS011;13479;49.044;8.716;2024-02-21T08:46:20;12.75;;;3.22;;
25609;SDS011;13479;49.044;8.716;2024-02-21T08:48:46;7.78;;;2.58;;
25609;SDS011;13479;49.044;8.716;2024-02-21T08:51:14;11.13;;;2.70;;
25609;SDS011;13479;49.044;8.716;2024-02-21T08:53:40;10.10;;;2.40;;
25609;SDS011;13479;49.044;8.716;2024-02-21T08:56:05;7.50;;;2.90;;
25609;SDS011;13479;49.044;8.716;2024-02-21T08:58:32;10.98;;;2.65;;
25609;SDS011;13479;49.044;8.716;2024-02-21T09:00:57;7.30;;;2.17;;
25609;SDS011;13479;49.044;8.716;2024-02-21T09:03:23;9.00;;;2.53;;
25609;SDS011;13479;49.044;8.716;2024-02-21T09:05:48;7.05;;;2.45;;
25609;SDS011;13479;49.044;8.716;2024-02-21T09:08:13;6.97;;;2.25;;
25609;SDS011;13479;49.044;8.716;2024-02-21T09:10:39;9.77;;;2.38;;
25609;SDS011;13479;49.044;8.716;2024-02-21T09:13:05;5.85;;;2.10;;
25609;SDS011;13479;49.044;8.716;2024-02-21T09:15:30;6.97;;;2.35;;
25609;SDS011;13479;49.044;8.716;2024-02-21T09:17:56;8.25;;;2.78;;
25609;SDS011;13479;49.044;8.716;2024-02-21T09:20:21;9.02;;;2.33;;
25609;SDS011;13479;49.044;8.716;2024-02-21T09:22:47;8.07;;;2.40;;
25609;SDS011;13479;49.044;8.716;2024-02-21T09:25:12;11.13;;;2.25;;
25609;SDS011;13479;49.044;8.716;2024-02-21T09:27:39;10.95;;;2.58;;
25609;SDS011;13479;49.044;8.716;2024-02-21T09:30:05;8.07;;;2.20;;
25609;SDS011;13479;49.044;8.716;2024-02-21T09:32:31;8.80;;;2.50;;
25609;SDS011;13479;49.044;8.716;2024-02-21T09:34:57;7.28;;;2.20;;
25609;SDS011;13479;49.044;8.716;2024-02-21T09:37:23;8.98;;;2.55;;
25609;SDS011;13479;49.044;8.716;2024-02-21T09:39:49;4.50;;;1.92;;
25609;SDS011;13479;49.044;8.716;2024-02-21T09:42:16;8.07;;;2.10;;
25609;SDS011;13479;49.044;8.716;2024-02-21T09:44:45;7.85;;;2.17;;
25609;SDS011;13479;49.044;8.716;2024-02-21T09:47:18;10.05;;;2.35;;
25609;SDS011;13479;49.044;8.716;2024-02-21T09:49:47;9.02;;;2.20;;
25609;SDS011;13479;49.044;8.716;2024-02-21T09:52:12;8.88;;;2.30;;
25609;SDS011;13479;49.044;8.716;2024-02-21T09:54:40;9.25;;;2.20;;
25609;SDS011;13479;49.044;8.716;2024-02-21T09:57:09;8.77;;;1.95;;
25609;SDS011;13479;49.044;8.716;2024-02-21T09:59:36;10.02;;;2.53;;
25609;SDS011;13479;49.044;8.716;2024-02-21T10:02:02;8.13;;;2.30;;
25609;SDS011;13479;49.044;8.716;2024-02-21T10:04:27;12.32;;;2.55;;
25609;SDS011;13479;49.044;8.716;2024-02-21T10:06:54;7.10;;;1.92;;
25609;SDS011;13479;49.044;8.716;2024-02-21T10:09:26;9.27;;;2.17;;
25609;SDS011;13479;49.044;8.716;2024-02-21T10:11:53;8.48;;;2.33;;
25609;SDS011;13479;49.044;8.716;2024-02-21T10:14:19;7.03;;;2.10;;
25609;SDS011;13479;49.044;8.716;2024-02-21T10:16:48;8.52;;;2.08;;
25609;SDS011;13479;49.044;8.716;2024-02-21T10:19:18;7.60;;;2.08;;
25609;SDS011;13479;49.044;8.716;2024-02-21T10:21:44;7.53;;;1.63;;
25609;SDS011;13479;49.044;8.716;2024-02-21T10:24:28;5.03;;;1.73;;
25609;SDS011;13479;49.044;8.716;2024-02-21T10:27:04;7.88;;;2.20;;
25609;SDS011;13479;49.044;8.716;2024-02-21T10:29:33;5.20;;;1.75;;
25609;SDS011;13479;49.044;8.716;2024-02-21T10:32:11;6.85;;;1.80;;
25609;SDS011;13479;49.044;8.716;2024-02-21T10:34:38;10.13;;;2.03;;
25609;SDS011;13479;49.044;8.716;2024-02-21T10:37:05;8.07;;;2.00;;
25609;SDS011;13479;49.044;8.716;2024-02-21T10:39:32;7.00;;;1.63;;
25609;SDS011;13479;49.044;8.716;2024-02-21T10:41:59;6.28;;;1.63;;
25609;SDS011;13479;49.044;8.716;2024-02-21T10:44:28;5.88;;;1.50;;
25609;SDS011;13479;49.044;8.716;2024-02-21T10:46:55;7.25;;;1.98;;
25609;SDS011;13479;49.044;8.716;2024-02-21T10:49:22;8.85;;;1.83;;
25609;SDS011;13479;49.044;8.716;2024-02-21T10:51:54;8.03;;;1.97;;
25609;SDS011;13479;49.044;8.716;2024-02-21T10:54:29;16.65;;;2.17;;
25609;SDS011;13479;49.044;8.716;2024-02-21T10:57:02;8.35;;;2.00;;
25609;SDS011;13479;49.044;8.716;2024-02-21T10:59:29;10.68;;;2.33;;
25609;SDS011;13479;49.044;8.716;2024-02-21T11:01:57;8.25;;;1.77;;
25609;SDS011;13479;49.044;8.716;2024-02-21T11:04:22;6.93;;;1.77;;
25609;SDS011;13479;49.044;8.716;2024-02-21T11:06:48;8.52;;;2.05;;
25609;SDS011;13479;49.044;8.716;2024-02-21T11:09:14;7.38;;;2.00;;
25609;SDS011;13479;49.044;8.716;2024-02-21T11:11:39;9.43;;;2.47;;
25609;SDS011;13479;49.044;8.716;2024-02-21T11:16:44;8.38;;;1.98;;
25609;SDS011;13479;49.044;8.716;2024-02-21T11:19:18;7.57;;;1.90;;
25609;SDS011;13479;49.044;8.716;2024-02-21T11:21:47;6.55;;;1.92;;
25609;SDS011;13479;49.044;8.716;2024-02-21T11:24:13;10.82;;;2.10;;
25609;SDS011;13479;49.044;8.716;2024-02-21T11:26:39;7.50;;;2.00;;
25609;SDS011;13479;49.044;8.716;2024-02-21T11:29:07;6.82;;;1.70;;
25609;SDS011;13479;49.044;8.716;2024-02-21T11:31:43;8.40;;;1.75;;
25609;SDS011;13479;49.044;8.716;2024-02-21T11:34:11;7.97;;;1.70;;
25609;SDS011;13479;49.044;8.716;2024-02-21T11:36:45;8.02;;;1.90;;
25609;SDS011;13479;49.044;8.716;2024-02-21T11:39:21;6.68;;;1.77;;
25609;SDS011;13479;49.044;8.716;2024-02-21T11:42:03;7.65;;;1.75;;
25609;SDS011;13479;49.044;8.716;2024-02-21T11:44:30;7.03;;;1.70;;
25609;SDS011;13479;49.044;8.716;2024-02-21T11:47:00;7.63;;;1.67;;
25609;SDS011;13479;49.044;8.716;2024-02-21T11:49:26;9.77;;;2.08;;
25609;SDS011;13479;49.044;8.716;2024-02-21T11:51:59;8.95;;;1.70;;
25609;SDS011;13479;49.044;8.716;2024-02-21T11:54:32;9.50;;;1.98;;
25609;SDS011;13479;49.044;8.716;2024-02-21T11:56:58;7.25;;;1.77;;
25609;SDS011;13479;49.044;8.716;2024-02-21T11:59:24;6.78;;;1.77;;
25609;SDS011;13479;49.044;8.716;2024-02-21T12:01:49;8.77;;;1.80;;
25609;SDS011;13479;49.044;8.716;2024-02-21T12:04:17;9.82;;;1.90;;
25609;SDS011;13479;49.044;8.716;2024-02-21T12:06:44;6.40;;;1.40;;
25609;SDS011;13479;49.044;8.716;2024-02-21T12:09:13;6.18;;;1.45;;
25609;SDS011;13479;49.044;8.716;2024-02-21T12:11:39;7.57;;;1.90;;
25609;SDS011;13479;49.044;8.716;2024-02-21T12:14:04;7.25;;;1.85;;
25609;SDS011;13479;49.044;8.716;2024-02-21T12:16:33;5.97;;;1.70;;
25609;SDS011;13479;49.044;8.716;2024-02-21T12:18:59;5.82;;;1.75;;
25609;SDS011;13479;49.044;8.716;2024-02-21T12:21:25;8.82;;;1.70;;
25609;SDS011;13479;49.044;8.716;2024-02-21T12:23:53;8.60;;;1.95;;
25609;SDS011;13479;49.044;8.716;2024-02-21T12:26:22;5.20;;;1.67;;
25609;SDS011;13479;49.044;8.716;2024-02-21T12:28:47;6.43;;;1.75;;
25609;SDS011;13479;49.044;8.716;2024-02-21T12:31:12;6.68;;;1.50;;
25609;SDS011;13479;49.044;8.716;2024-02-21T12:33:38;6.82;;;1.80;;
25609;SDS011;13479;49.044;8.716;2024-02-21T12:36:04;6.93;;;1.63;;
25609;SDS011;13479;49.044;8.716;2024-02-21T12:38:29;5.10;;;1.40;;
25609;SDS011;13479;49.044;8.716;2024-02-21T12:40:55;5.22;;;1.70;;
25609;SDS011;13479;49.044;8.716;2024-02-21T12:43:22;9.65;;;1.77;;
25609;SDS011;13479;49.044;8.716;2024-02-21T12:45:47;5.32;;;1.58;;
25609;SDS011;13479;49.044;8.716;2024-02-21T12:48:13;5.97;;;1.70;;
25609;SDS011;13479;49.044;8.716;2024-02-21T12:50:39;3.67;;;1.25;;
25609;SDS011;13479;49.044;8.716;2024-02-21T12:53:05;9.57;;;1.60;;
25609;SDS011;13479;49.044;8.716;2024-02-21T12:55:30;5.88;;;1.60;;
25609;SDS011;13479;49.044;8.716;2024-02-21T12:57:55;6.88;;;1.60;;
25609;SDS011;13479;49.044;8.716;2024-02-21T13:00:22;6.45;;;1.48;;
25609;SDS011;13479;49.044;8.716;2024-02-21T13:02:51;6.45;;;1.40;;
25609;SDS011;13479;49.044;8.716;2024-02-21T13:05:16;9.63;;;1.92;;
25609;SDS011;13479;49.044;8.716;2024-02-21T13:07:42;6.78;;;1.45;;
25609;SDS011;13479;49.044;8.716;2024-02-21T13:10:07;6.75;;;1.58;;
25609;SDS011;13479;49.044;8.716;2024-02-21T13:12:33;4.43;;;1.50;;
25609;SDS011;13479;49.044;8.716;2024-02-21T13:14:58;5.28;;;1.50;;
25609;SDS011;13479;49.044;8.716;2024-02-21T13:17:23;3.10;;;1.20;;
25609;SDS011;13479;49.044;8.716;2024-02-21T13:19:49;6.25;;;1.60;;
25609;SDS011;13479;49.044;8.716;2024-02-21T13:22:14;6.28;;;1.40;;
25609;SDS011;13479;49.044;8.716;2024-02-21T13:24:39;8.07;;;1.67;;
25609;SDS011;13479;49.044;8.716;2024-02-21T13:27:05;5.60;;;1.45;;
25609;SDS011;13479;49.044;8.716;2024-02-21T13:29:30;4.97;;;1.63;;
25609;SDS011;13479;49.044;8.716;2024-02-21T13:31:55;5.80;;;1.63;;
25609;SDS011;13479;49.044;8.716;2024-02-21T13:34:20;7.38;;;1.70;;
25609;SDS011;13479;49.044;8.716;2024-02-21T13:36:46;5.32;;;1.33;;
25609;SDS011;13479;49.044;8.716;2024-02-21T13:39:11;7.43;;;1.40;;
25609;SDS011;13479;49.044;8.716;2024-02-21T13:41:40;4.82;;;1.50;;
25609;SDS011;13479;49.044;8.716;2024-02-21T13:44:07;4.57;;;1.42;;
25609;SDS011;13479;49.044;8.716;2024-02-21T13:46:32;6.30;;;1.50;;
25609;SDS011;13479;49.044;8.716;2024-02-21T13:49:02;6.53;;;1.50;;
25609;SDS011;13479;49.044;8.716;2024-02-21T13:51:32;5.15;;;1.30;;
25609;SDS011;13479;49.044;8.716;2024-02-21T13:53:58;5.85;;;1.40;;
25609;SDS011;13479;49.044;8.716;2024-02-21T13:56:24;5.63;;;1.63;;
25609;SDS011;13479;49.044;8.716;2024-02-21T13:58:49;7.78;;;1.38;;
25609;SDS011;13479;49.044;8.716;2024-02-21T14:01:15;5.53;;;1.27;;
25609;SDS011;13479;49.044;8.716;2024-02-21T14:03:40;4.60;;;1.40;;
25609;SDS011;13479;49.044;8.716;2024-02-21T14:06:06;6.55;;;1.77;;
25609;SDS011;13479;49.044;8.716;2024-02-21T14:08:31;8.57;;;1.63;;
25609;SDS011;13479;49.044;8.716;2024-02-21T14:10:59;4.97;;;1.40;;
25609;SDS011;13479;49.044;8.716;2024-02-21T14:13:25;5.85;;;1.38;;
25609;SDS011;13479;49.044;8.716;2024-02-21T14:15:50;5.32;;;1.52;;
25609;SDS011;13479;49.044;8.716;2024-02-21T14:18:16;5.70;;;1.63;;
25609;SDS011;13479;49.044;8.716;2024-02-21T14:20:41;7.63;;;1.95;;
25609;SDS011;13479;49.044;8.716;2024-02-21T14:23:06;5.55;;;1.45;;
25609;SDS011;13479;49.044;8.716;2024-02-21T14:25:31;4.32;;;1.30;;
25609;SDS011;13479;49.044;8.716;2024-02-21T14:27:58;6.38;;;1.60;;
25609;SDS011;13479;49.044;8.716;2024-02-21T14:30:25;5.93;;;1.70;;
25609;SDS011;13479;49.044;8.716;2024-02-21T14:32:50;5.13;;;1.50;;
25609;SDS011;13479;49.044;8.716;2024-02-21T14:35:16;4.35;;;1.48;;
25609;SDS011;13479;49.044;8.716;2024-02-21T14:37:41;6.65;;;1.40;;
25609;SDS011;13479;49.044;8.716;2024-02-21T14:40:07;4.90;;;1.30;;
25609;SDS011;13479;49.044;8.716;2024-02-21T14:42:32;8.38;;;1.88;;
25609;SDS011;13479;49.044;8.716;2024-02-21T14:44:59;7.50;;;2.05;;
25609;SDS011;13479;49.044;8.716;2024-02-21T14:47:29;8.15;;;1.67;;
25609;SDS011;13479;49.044;8.716;2024-02-21T14:49:55;8.02;;;1.58;;
25609;SDS011;13479;49.044;8.716;2024-02-21T14:52:20;6.00;;;1.77;;
25609;SDS011;13479;49.044;8.716;2024-02-21T14:54:46;9.93;;;1.90;;
25609;SDS011;13479;49.044;8.716;2024-02-21T14:57:16;5.25;;;1.75;;
25609;SDS011;13479;49.044;8.716;2024-02-21T14:59:41;5.68;;;1.73;;
25609;SDS011;13479;49.044;8.716;2024-02-21T15:02:07;13.05;;;1.60;;
25609;SDS011;13479;49.044;8.716;2024-02-21T15:04:34;5.38;;;1.67;;
25609;SDS011;13479;49.044;8.716;2024-02-21T15:06:59;7.18;;;1.60;;
25609;SDS011;13479;49.044;8.716;2024-02-21T15:09:24;10.05;;;1.83;;
25609;SDS011;13479;49.044;8.716;2024-02-21T15:11:50;10.45;;;1.92;;
25609;SDS011;13479;49.044;8.716;2024-02-21T15:14:15;7.72;;;2.05;;
25609;SDS011;13479;49.044;8.716;2024-02-21T15:16:41;6.68;;;1.67;;
25609;SDS011;13479;49.044;8.716;2024-02-21T15:19:06;6.65;;;1.52;;
25609;SDS011;13479;49.044;8.716;2024-02-21T15:21:31;8.02;;;1.95;;
25609;SDS011;13479;49.044;8.716;2024-02-21T15:23:57;7.90;;;1.70;;
25609;SDS011;13479;49.044;8.716;2024-02-21T15:26:23;7.78;;;2.00;;
25609;SDS011;13479;49.044;8.716;2024-02-21T15:28:49;9.82;;;2.08;;
25609;SDS011;13479;49.044;8.716;2024-02-21T15:31:21;7.85;;;2.13;;
25609;SDS011;13479;49.044;8.716;2024-02-21T15:33:48;6.25;;;1.70;;
25609;SDS011;13479;49.044;8.716;2024-02-21T15:36:17;11.40;;;3.67;;
25609;SDS011;13479;49.044;8.716;2024-02-21T15:38:42;6.30;;;1.80;;
25609;SDS011;13479;49.044;8.716;2024-02-21T15:41:10;10.00;;;1.73;;
25609;SDS011;13479;49.044;8.716;2024-02-21T15:43:36;7.50;;;2.33;;
25609;SDS011;13479;49.044;8.716;2024-02-21T15:46:03;9.02;;;3.28;;
25609;SDS011;13479;49.044;8.716;2024-02-21T15:48:28;6.45;;;2.33;;
25609;SDS011;13479;49.044;8.716;2024-02-21T15:50:53;7.57;;;2.40;;
25609;SDS011;13479;49.044;8.716;2024-02-21T15:53:19;10.70;;;2.65;;
25609;SDS011;13479;49.044;8.716;2024-02-21T15:55:45;7.03;;;1.38;;
25609;SDS011;13479;49.044;8.716;2024-02-21T15:58:11;7.38;;;1.70;;
25609;SDS011;13479;49.044;8.716;2024-02-21T16:00:36;6.88;;;1.83;;
25609;SDS011;13479;49.044;8.716;2024-02-21T16:03:01;7.50;;;1.80;;
25609;SDS011;13479;49.044;8.716;2024-02-21T16:05:28;11.00;;;2.55;;
25609;SDS011;13479;49.044;8.716;2024-02-21T16:07:53;6.40;;;2.13;;
25609;SDS011;13479;49.044;8.716;2024-02-21T16:10:18;6.60;;;2.30;;
25609;SDS011;13479;49.044;8.716;2024-02-21T16:12:43;5.45;;;2.08;;
25609;SDS011;13479;49.044;8.716;2024-02-21T16:15:09;8.27;;;2.00;;
25609;SDS011;13479;49.044;8.716;2024-02-21T16:17:38;9.25;;;2.13;;
25609;SDS011;13479;49.044;8.716;2024-02-21T16:20:04;4.38;;;1.80;;
25609;SDS011;13479;49.044;8.716;2024-02-21T16:22:35;9.30;;;1.98;;
25609;SDS011;13479;49.044;8.716;2024-02-21T16:25:00;7.55;;;1.95;;
25609;SDS011;13479;49.044;8.716;2024-02-21T16:27:26;6.38;;;1.70;;
25609;SDS011;13479;49.044;8.716;2024-02-21T16:29:51;9.07;;;1.98;;
25609;SDS011;13479;49.044;8.716;2024-02-21T16:32:16;5.03;;;1.67;;
25609;SDS011;13479;49.044;8.716;2024-02-21T16:34:42;10.32;;;1.88;;
25609;SDS011;13479;49.044;8.716;2024-02-21T16:37:07;7.30;;;1.92;;
25609;SDS011;13479;49.044;8.716;2024-02-21T16:39:33;10.80;;;3.75;;
25609;SDS011;13479;49.044;8.716;2024-02-21T16:41:58;8.13;;;1.80;;
25609;SDS011;13479;49.044;8.716;2024-02-21T16:44:27;7.55;;;1.90;;
25609;SDS011;13479;49.044;8.716;2024-02-21T16:46:53;7.10;;;1.65;;
25609;SDS011;13479;49.044;8.716;2024-02-21T16:49:18;7.63;;;1.88;;
25609;SDS011;13479;49.044;8.716;2024-02-21T16:51:44;5.72;;;1.67;;
25609;SDS011;13479;49.044;8.716;2024-02-21T16:54:09;5.90;;;1.38;;
25609;SDS011;13479;49.044;8.716;2024-02-21T16:56:35;8.70;;;1.80;;
25609;SDS011;13479;49.044;8.716;2024-02-21T16:59:03;6.63;;;1.73;;
25609;SDS011;13479;49.044;8.716;2024-02-21T17:01:34;7.30;;;1.60;;
25609;SDS011;13479;49.044;8.716;2024-02-21T17:04:00;7.20;;;2.03;;
25609;SDS011;13479;49.044;8.716;2024-02-21T17:06:25;9.68;;;2.03;;
25609;SDS011;13479;49.044;8.716;2024-02-21T17:08:50;9.55;;;1.88;;
25609;SDS011;13479;49.044;8.716;2024-02-21T17:11:16;7.45;;;1.70;;
25609;SDS011;13479;49.044;8.716;2024-02-21T17:13:41;5.13;;;1.60;;
25609;SDS011;13479;49.044;8.716;2024-02-21T17:16:06;9.48;;;1.83;;
25609;SDS011;13479;49.044;8.716;2024-02-21T17:18:31;11.30;;;2.28;;
25609;SDS011;13479;49.044;8.716;2024-02-21T17:20:57;8.23;;;2.65;;
25609;SDS011;13479;49.044;8.716;2024-02-21T17:23:22;13.52;;;4.53;;
25609;SDS011;13479;49.044;8.716;2024-02-21T17:25:47;8.85;;;3.70;;
25609;SDS011;13479;49.044;8.716;2024-02-21T17:28:13;14.88;;;4.60;;
25609;SDS011;13479;49.044;8.716;2024-02-21T17:30:38;13.32;;;3.85;;
25609;SDS011;13479;49.044;8.716;2024-02-21T17:33:04;21.83;;;7.40;;
25609;SDS011;13479;49.044;8.716;2024-02-21T17:35:32;10.63;;;4.43;;
25609;SDS011;13479;49.044;8.716;2024-02-21T17:37:59;10.00;;;4.00;;
25609;SDS011;13479;49.044;8.716;2024-02-21T17:40:24;8.93;;;3.13;;
25609;SDS011;13479;49.044;8.716;2024-02-21T17:42:50;9.25;;;3.22;;
25609;SDS011;13479;49.044;8.716;2024-02-21T17:45:15;8.95;;;2.80;;
25609;SDS011;13479;49.044;8.716;2024-02-21T17:47:40;10.00;;;2.90;;
25609;SDS011;13479;49.044;8.716;2024-02-21T17:50:06;11.38;;;2.70;;
25609;SDS011;13479;49.044;8.716;2024-02-21T17:52:31;8.95;;;2.30;;
25609;SDS011;13479;49.044;8.716;2024-02-21T17:54:57;10.18;;;2.88;;
25609;SDS011;13479;49.044;8.716;2024-02-21T17:57:22;6.05;;;1.95;;
25609;SDS011;13479;49.044;8.716;2024-02-21T17:59:47;9.73;;;2.55;;
25609;SDS011;13479;49.044;8.716;2024-02-21T18:02:13;8.73;;;2.35;;
25609;SDS011;13479;49.044;8.716;2024-02-21T18:04:44;7.32;;;2.50;;
25609;SDS011;13479;49.044;8.716;2024-02-21T18:07:09;8.73;;;3.13;;
25609;SDS011;13479;49.044;8.716;2024-02-21T18:09:35;12.48;;;3.00;;
25609;SDS011;13479;49.044;8.716;2024-02-21T18:12:00;11.23;;;3.40;;
25609;SDS011;13479;49.044;8.716;2024-02-21T18:14:25;13.40;;;3.28;;
25609;SDS011;13479;49.044;8.716;2024-02-21T18:16:50;12.50;;;3.47;;
25609;SDS011;13479;49.044;8.716;2024-02-21T18:19:16;12.57;;;5.15;;
25609;SDS011;13479;49.044;8.716;2024-02-21T18:21:44;10.20;;;4.82;;
25609;SDS011;13479;49.044;8.716;2024-02-21T18:24:09;14.10;;;5.05;;
25609;SDS011;13479;49.044;8.716;2024-02-21T18:26:35;10.98;;;4.60;;
25609;SDS011;13479;49.044;8.716;2024-02-21T18:29:00;13.93;;;4.63;;
25609;SDS011;13479;49.044;8.716;2024-02-21T18:31:25;13.50;;;4.30;;
25609;SDS011;13479;49.044;8.716;2024-02-21T18:33:52;12.35;;;5.30;;
25609;SDS011;13479;49.044;8.716;2024-02-21T18:36:18;17.83;;;7.25;;
25609;SDS011;13479;49.044;8.716;2024-02-21T18:38:43;20.48;;;7.95;;
25609;SDS011;13479;49.044;8.716;2024-02-21T18:41:09;16.23;;;6.15;;
25609;SDS011;13479;49.044;8.716;2024-02-21T18:43:34;21.63;;;8.43;;
25609;SDS011;13479;49.044;8.716;2024-02-21T18:45:59;20.70;;;9.07;;
25609;SDS011;13479;49.044;8.716;2024-02-21T18:48:25;22.55;;;8.75;;
25609;SDS011;13479;49.044;8.716;2024-02-21T18:50:50;17.77;;;8.00;;
25609;SDS011;13479;49.044;8.716;2024-02-21T18:53:15;15.80;;;8.15;;
25609;SDS011;13479;49.044;8.716;2024-02-21T18:55:41;19.33;;;8.18;;
25609;SDS011;13479;49.044;8.716;2024-02-21T18:58:06;18.50;;;8.02;;
25609;SDS011;13479;49.044;8.716;2024-02-21T19:00:32;16.60;;;7.70;;
25609;SDS011;13479;49.044;8.716;2024-02-21T19:02:57;18.30;;;7.60;;
25609;SDS011;13479;49.044;8.716;2024-02-21T19:05:22;17.80;;;6.93;;
25609;SDS011;13479;49.044;8.716;2024-02-21T19:07:48;14.82;;;5.50;;
25609;SDS011;13479;49.044;8.716;2024-02-21T19:10:16;19.02;;;8.05;;
25609;SDS011;13479;49.044;8.716;2024-02-21T19:12:41;22.85;;;8.52;;
25609;SDS011;13479;49.044;8.716;2024-02-21T19:15:07;18.50;;;7.82;;
25609;SDS011;13479;49.044;8.716;2024-02-21T19:17:33;20.25;;;8.85;;
25609;SDS011;13479;49.044;8.716;2024-02-21T19:19:58;20.23;;;7.88;;
25609;SDS011;13479;49.044;8.716;2024-02-21T19:22:24;17.23;;;6.30;;
25609;SDS011;13479;49.044;8.716;2024-02-21T19:24:54;16.20;;;6.20;;
25609;SDS011;13479;49.044;8.716;2024-02-21T19:27:19;14.80;;;5.45;;
25609;SDS011;13479;49.044;8.716;2024-02-21T19:29:44;15.20;;;5.43;;
25609;SDS011;13479;49.044;8.716;2024-02-21T19:32:09;26.88;;;9.55;;
25609;SDS011;13479;49.044;8.716;2024-02-21T19:34:35;19.83;;;8.32;;
25609;SDS011;13479;49.044;8.716;2024-02-21T19:37:01;22.17;;;7.90;;
25609;SDS011;13479;49.044;8.716;2024-02-21T19:39:26;28.05;;;11.75;;
25609;SDS011;13479;49.044;8.716;2024-02-21T19:41:52;34.97;;;13.13;;
25609;SDS011;13479;49.044;8.716;2024-02-21T19:44:18;20.80;;;8.15;;